• Join FlightAware (Why Join?)
  • Login
  • US Flag 
12:07AM EDT


 

Airport Tracker/Info


-or-


 

Live Flight TrackerFlight Track Log ✈ AAY860 ✈ 05-Mar-2014 ✈ KTYS - KLEX

Flight Track Log - Related Links

Times and Time Zones

All times are in EST time to prevent confusion due to time zone crossing. See the AAY860 flight status page for this flight to view local times or setup timezone preferences in your user account.

Time Position Orientation Groundspeed Altitude Reporting Facility
EST Latitude Longitude Course Direction KTS MPH feet Rate Location/Type
10:19AM 35.9153 -83.9244 North 235 270 5,600  Level Indianapolis Center
10:20AM 35.9811 -83.9156 North 244 281 8,200 2,580 Climbing Atlanta Center
10:21AM 36.0583 -83.9181 359° North 264 304 10,600 2,100 Climbing Atlanta Center
10:22AM 36.1522 -83.9308 354° North 293 337 12,400 2,160 Climbing Atlanta Center
10:23AM 36.2481 -83.9461 353° North 324 373 15,000 2,520 Climbing Atlanta Center
10:24AM 36.3481 -83.9639 352° North 353 406 17,500 2,100 Climbing Atlanta Center
10:25AM 36.4669 -83.9750 356° North 365 420 19,900 1,860 Climbing Indianapolis Center
10:26AM 36.5842 -84.0153 345° North 375 432 21,900 1,020 Climbing Indianapolis Center
10:27AM 36.6831 -84.0617 339° North 380 437 22,000  Climbing Indianapolis Center
10:28AM 36.7819 -84.1094 339° North 380 437 22,000 -420 Level Indianapolis Center
10:29AM 36.8814 -84.1558 340° North 380 437 21,200 -960 Descending Indianapolis Center
10:30AM 36.9794 -84.2019 339° North 379 436 20,100 -1,320 Descending Indianapolis Center
10:31AM 37.0786 -84.2369 344° North 374 430 18,500 -1,860 Descending Indianapolis Center
10:32AM 37.1956 -84.2661 349° North 369 425 16,400 -2,160 Descending Indianapolis Center
10:33AM 37.2903 -84.2931 347° North 357 411 14,100 -2,040 Descending Indianapolis Center
10:34AM 37.3875 -84.3161 349° North 357 411 12,200 -1,500 Descending Indianapolis Center
10:35AM 37.4772 -84.3403 348° North 338 389 11,000 -1,140 Descending Indianapolis Center
10:36AM 37.4872 -84.3436 345° North 327 376 11,000 -600 Level Indianapolis Center
10:37AM 37.5525 -84.3814 335° Northwest 299 344 10,400 -960 Descending Indianapolis Center
10:38AM 37.6108 -84.4436 320° Northwest 277 319 9,100 -1,500 Descending Indianapolis Center
10:39AM 37.6672 -84.5033 320° Northwest 269 310 7,400 -1,800 Descending Indianapolis Center
10:39AM 37.7078 -84.5464 320° Northwest 264 304 6,300 -1,800 Descending Indianapolis Center
10:40AM 37.7322 -84.5739 318° Northwest 266 306 5,600 -1,380 Descending Indianapolis Center
10:41AM 37.7675 -84.6353 306° West 260 299 4,300 -780 Descending Indianapolis Center
10:42AM 37.7883 -84.7272 286° West 240 276 4,000 -720 Descending Indianapolis Center
10:43AM 37.8056 -84.7956 288° West 218 251 2,900 -1,020 Descending Indianapolis Center
10:43AM 37.8378 -84.8139 336° Northwest 219 252 2,500 -420 Descending Indianapolis Center
10:44AM 37.8581 -84.8033 22° Northeast 208 239 2,500  Level Indianapolis Center
10:45AM 37.8928 -84.7647 41° Northeast 183 211 2,500  Level Indianapolis Center
10:46AM 37.9311 -84.7231 41° Northeast 165 190 2,500  Level Indianapolis Center
10:47AM 37.9625 -84.6881 41° Northeast 159 183 2,500 -180 Level Indianapolis Center
10:48AM 37.9844 -84.6614 44° Northeast 144 166 2,200 -540 Descending Indianapolis Center
10:48AM 37.9922 -84.6542 36° Northeast 154 177 2,000 -420 Descending Indianapolis Center
10:49AM 38.0269 -84.6172 40° Northeast 153 176 1,700 -300 Descending Indianapolis Center